createdAt,value
2023-02-05T00:00:41.938Z,94.60
2023-02-05T00:02:47.417Z,94.70
2023-02-05T00:04:53.384Z,94.70
2023-02-05T00:06:58.708Z,94.90
2023-02-05T00:09:03.609Z,95.00
2023-02-05T00:11:10.747Z,95.00
2023-02-05T00:13:15.651Z,95.00
2023-02-05T00:15:21.174Z,94.90
2023-02-05T00:17:28.680Z,95.00
2023-02-05T00:19:34.273Z,95.10
2023-02-05T00:21:39.539Z,95.30
2023-02-05T00:23:45.280Z,95.40
2023-02-05T00:25:50.180Z,95.20
2023-02-05T00:27:55.475Z,95.50
2023-02-05T00:30:00.897Z,95.40
2023-02-05T00:32:06.508Z,95.30
2023-02-05T00:34:14.015Z,95.30
2023-02-05T00:36:20.711Z,95.10
2023-02-05T00:38:26.026Z,95.30
2023-02-05T00:40:32.644Z,95.40
2023-02-05T00:42:37.704Z,95.30
2023-02-05T00:44:42.702Z,95.20
2023-02-05T00:46:47.648Z,95.10
2023-02-05T00:48:52.864Z,95.10
2023-02-05T00:51:00.370Z,95.00
2023-02-05T00:53:05.908Z,95.20
2023-02-05T00:55:12.447Z,95.20
2023-02-05T00:57:17.748Z,95.20
2023-02-05T00:59:23.992Z,95.10
2023-02-05T01:01:29.337Z,94.90
2023-02-05T01:03:35.272Z,95.20
2023-02-05T01:05:41.957Z,95.10
2023-02-05T01:07:49.709Z,95.20
2023-02-05T01:09:54.689Z,94.90
2023-02-05T01:12:00.507Z,95.10
2023-02-05T01:14:05.868Z,95.10
2023-02-05T01:16:12.009Z,95.10
2023-02-05T01:18:17.633Z,95.00
2023-02-05T01:20:23.330Z,95.00
2023-02-05T01:22:28.852Z,95.10
2023-02-05T01:24:36.617Z,95.30
2023-02-05T01:26:41.483Z,95.10
2023-02-05T01:28:47.603Z,95.00
2023-02-05T01:30:53.557Z,94.90
2023-02-05T01:32:58.863Z,94.80
2023-02-05T01:35:04.100Z,94.90
2023-02-05T01:37:09.034Z,95.00
2023-02-05T01:39:14.931Z,94.70
2023-02-05T01:41:23.304Z,94.70
2023-02-05T01:43:28.192Z,94.80
2023-02-05T01:46:03.539Z,94.90
2023-02-05T01:48:12.443Z,95.00
2023-02-05T01:50:18.431Z,95.00
2023-02-05T01:52:23.316Z,95.20
2023-02-05T01:54:34.113Z,95.10
2023-02-05T01:56:45.627Z,94.90
2023-02-05T01:58:56.643Z,95.00
2023-02-05T02:01:02.976Z,95.10
2023-02-05T02:03:08.707Z,95.10
2023-02-05T02:05:18.115Z,95.10
2023-02-05T02:07:26.515Z,94.90
2023-02-05T02:09:31.520Z,94.90
2023-02-05T02:11:42.350Z,95.10
2023-02-05T02:13:50.964Z,94.90
2023-02-05T02:15:58.236Z,95.10
2023-02-05T02:18:18.659Z,95.10
2023-02-05T02:20:27.167Z,95.20
2023-02-05T02:22:56.819Z,95.00
2023-02-05T02:25:41.027Z,95.10
2023-02-05T02:27:56.638Z,95.10
2023-02-05T02:30:08.656Z,95.20
2023-02-05T02:32:23.378Z,95.10
2023-02-05T02:34:35.958Z,95.00
2023-02-05T02:36:50.497Z,94.80
2023-02-05T02:39:04.006Z,95.00
2023-02-05T02:41:16.148Z,95.00
2023-02-05T02:43:33.761Z,95.00
2023-02-05T02:45:48.097Z,95.10
2023-02-05T02:47:58.806Z,95.00
2023-02-05T02:50:09.324Z,95.10
2023-02-05T02:52:18.198Z,95.30
2023-02-05T02:54:27.234Z,95.20
2023-02-05T02:56:36.398Z,95.00
2023-02-05T02:58:48.743Z,95.00
2023-02-05T03:00:56.736Z,94.90
2023-02-05T03:03:08.347Z,94.90
2023-02-05T03:05:20.587Z,95.10
2023-02-05T03:07:32.281Z,95.10
2023-02-05T03:09:45.427Z,95.00
2023-02-05T03:11:51.256Z,95.00
2023-02-05T03:14:01.118Z,94.90
2023-02-05T03:16:11.250Z,94.80
2023-02-05T03:18:18.519Z,94.70
2023-02-05T03:20:29.991Z,94.80
2023-02-05T03:22:35.584Z,94.90
2023-02-05T03:24:42.512Z,94.70
2023-02-05T03:26:47.732Z,94.70
2023-02-05T03:29:01.468Z,94.50
2023-02-05T03:31:13.071Z,94.40
2023-02-05T03:33:41.495Z,94.50
2023-02-05T03:35:58.408Z,94.40
2023-02-05T03:38:36.750Z,94.40
2023-02-05T03:40:54.038Z,94.40
2023-02-05T03:43:13.255Z,94.30
2023-02-05T03:45:51.765Z,94.20
2023-02-05T03:48:14.154Z,94.30
2023-02-05T03:50:26.759Z,94.40
2023-02-05T03:52:36.905Z,94.60
2023-02-05T03:54:54.284Z,94.50
2023-02-05T03:57:11.400Z,94.30
2023-02-05T03:59:19.538Z,94.10
2023-02-05T04:01:28.442Z,94.10
2023-02-05T04:03:34.083Z,94.00
2023-02-05T04:05:39.283Z,94.00
2023-02-05T04:07:44.188Z,93.90
2023-02-05T04:09:50.720Z,93.90
2023-02-05T04:11:55.700Z,94.10
2023-02-05T04:14:00.884Z,93.90
2023-02-05T04:16:07.192Z,93.80
2023-02-05T04:18:14.750Z,93.80
2023-02-05T04:20:22.299Z,94.00
2023-02-05T04:22:27.171Z,93.80
2023-02-05T04:24:32.503Z,94.00
2023-02-05T04:26:37.480Z,94.10
2023-02-05T04:28:44.837Z,94.00
2023-02-05T04:30:50.063Z,94.00
2023-02-05T04:32:57.727Z,94.10
2023-02-05T04:35:05.634Z,94.10
2023-02-05T04:37:10.676Z,94.00
2023-02-05T04:39:15.569Z,94.00
2023-02-05T04:41:20.453Z,94.00
2023-02-05T04:43:25.797Z,94.00
2023-02-05T04:45:31.415Z,94.20
2023-02-05T04:47:37.557Z,94.40
2023-02-05T04:49:43.063Z,94.10
2023-02-05T04:51:50.497Z,93.90
2023-02-05T04:53:56.073Z,93.90
2023-02-05T04:56:09.381Z,93.90
2023-02-05T04:58:14.574Z,93.90
2023-02-05T05:00:20.572Z,94.20
2023-02-05T05:02:25.830Z,94.30
2023-02-05T05:04:31.447Z,94.30
2023-02-05T05:06:37.373Z,94.30
2023-02-05T05:08:45.553Z,94.30
2023-02-05T05:10:51.814Z,94.10
2023-02-05T05:12:56.714Z,94.20
2023-02-05T05:15:01.602Z,94.30
2023-02-05T05:17:06.504Z,94.30
2023-02-05T05:19:11.364Z,94.10
2023-02-05T05:21:16.457Z,93.90
2023-02-05T05:23:21.556Z,93.80
2023-02-05T05:25:29.662Z,93.60
2023-02-05T05:27:34.538Z,93.50
2023-02-05T05:29:40.843Z,93.70
2023-02-05T05:31:46.434Z,93.80
2023-02-05T05:33:52.837Z,93.70
2023-02-05T05:35:57.857Z,93.80
2023-02-05T05:38:04.029Z,93.80
2023-02-05T05:40:22.893Z,93.90
2023-02-05T05:42:43.148Z,93.90
2023-02-05T05:44:50.492Z,93.80
2023-02-05T05:46:55.788Z,94.00
2023-02-05T05:49:02.986Z,93.80
2023-02-05T05:51:08.744Z,93.80
2023-02-05T05:53:14.190Z,93.90
2023-02-05T05:55:19.215Z,94.10
2023-02-05T05:57:24.462Z,94.10
2023-02-05T05:59:31.961Z,94.20
2023-02-05T06:01:36.817Z,94.10
2023-02-05T06:03:42.635Z,93.80
2023-02-05T06:05:47.524Z,93.90
2023-02-05T06:07:52.704Z,94.20
2023-02-05T06:09:57.599Z,94.20
2023-02-05T06:12:02.754Z,94.00
2023-02-05T06:14:08.575Z,93.90
2023-02-05T06:16:16.709Z,93.60
2023-02-05T06:18:23.709Z,93.70
2023-02-05T06:20:29.073Z,93.90
2023-02-05T06:22:34.159Z,94.10
2023-02-05T06:24:39.004Z,94.10
2023-02-05T06:26:44.268Z,94.00
2023-02-05T06:28:49.530Z,94.00
2023-02-05T06:30:55.378Z,93.80
2023-02-05T06:33:02.856Z,93.20
2023-02-05T06:35:09.350Z,93.30
2023-02-05T06:37:14.233Z,93.00
2023-02-05T06:39:19.084Z,93.20
2023-02-05T06:41:24.208Z,93.40
2023-02-05T06:43:29.095Z,93.50
2023-02-05T06:45:37.663Z,93.80
2023-02-05T06:47:42.680Z,93.70
2023-02-05T06:49:50.285Z,93.40
2023-02-05T06:51:55.664Z,93.20
2023-02-05T06:54:02.194Z,93.50
2023-02-05T06:56:08.521Z,93.70
2023-02-05T06:58:13.430Z,93.80
2023-02-05T07:00:19.974Z,93.90
2023-02-05T07:02:24.840Z,93.70
2023-02-05T07:04:31.407Z,93.90
2023-02-05T07:06:38.938Z,93.70
2023-02-05T07:08:44.406Z,93.70
2023-02-05T07:10:49.228Z,94.00
2023-02-05T07:12:54.164Z,93.90
2023-02-05T07:14:59.121Z,93.50
2023-02-05T07:17:04.056Z,93.30
2023-02-05T07:19:12.810Z,93.20
2023-02-05T07:21:19.496Z,92.50
2023-02-05T07:23:26.942Z,91.90
2023-02-05T07:25:36.467Z,91.80
2023-02-05T07:27:41.604Z,91.60
2023-02-05T07:29:46.513Z,91.40
2023-02-05T07:31:52.743Z,91.00
2023-02-05T07:33:57.977Z,92.00
2023-02-05T07:36:05.928Z,91.50
2023-02-05T07:38:11.666Z,90.70
2023-02-05T07:40:19.373Z,90.70
2023-02-05T07:42:24.827Z,91.70
2023-02-05T07:44:35.075Z,91.80
2023-02-05T07:46:40.230Z,91.90
2023-02-05T07:48:45.413Z,91.50
2023-02-05T07:50:53.641Z,91.50
2023-02-05T07:52:58.467Z,91.10
2023-02-05T07:55:04.002Z,91.00
2023-02-05T07:57:11.803Z,91.20
2023-02-05T07:59:16.670Z,91.20
2023-02-05T08:01:21.935Z,91.10
2023-02-05T08:03:27.363Z,91.10
2023-02-05T08:05:32.542Z,90.80
2023-02-05T08:07:37.593Z,90.80
2023-02-05T08:09:43.145Z,90.70
2023-02-05T08:11:49.102Z,90.30
2023-02-05T08:13:58.170Z,90.30
2023-02-05T08:16:07.293Z,90.90
2023-02-05T08:18:12.605Z,90.80
2023-02-05T08:20:17.823Z,90.60
2023-02-05T08:22:22.841Z,90.50
2023-02-05T08:24:27.708Z,90.40
2023-02-05T08:26:32.541Z,90.80
2023-02-05T08:28:37.745Z,91.00
2023-02-05T08:30:45.182Z,90.20
2023-02-05T08:32:51.302Z,90.60
2023-02-05T08:34:56.373Z,90.20
2023-02-05T08:37:01.224Z,90.40
2023-02-05T08:39:07.723Z,91.10
2023-02-05T08:41:15.170Z,91.30
2023-02-05T08:43:20.854Z,91.30
2023-02-05T08:45:25.928Z,91.10
2023-02-05T08:47:33.345Z,91.30
2023-02-05T08:49:38.499Z,91.60
2023-02-05T08:51:43.734Z,91.60
2023-02-05T08:53:49.889Z,91.90
2023-02-05T08:55:58.353Z,92.00
2023-02-05T08:58:03.272Z,92.20
2023-02-05T09:00:10.545Z,92.40
2023-02-05T09:02:18.216Z,92.30
2023-02-05T09:04:25.978Z,92.40
2023-02-05T09:06:31.391Z,92.20
2023-02-05T09:08:36.324Z,92.30
2023-02-05T09:10:41.325Z,92.70
2023-02-05T09:12:46.312Z,92.80
2023-02-05T09:14:51.463Z,92.60
2023-02-05T09:16:56.445Z,92.90
2023-02-05T09:19:02.910Z,92.90
2023-02-05T09:21:13.988Z,92.80
2023-02-05T09:23:22.076Z,93.10
2023-02-05T09:25:29.645Z,93.00
2023-02-05T09:27:35.699Z,93.10
2023-02-05T09:29:41.178Z,93.30
2023-02-05T09:31:46.237Z,93.30
2023-02-05T09:33:51.226Z,93.40
2023-02-05T09:35:56.789Z,93.50
2023-02-05T09:38:05.667Z,93.30
2023-02-05T09:40:21.462Z,93.40
2023-02-05T09:42:38.996Z,93.50
2023-02-05T09:44:58.965Z,93.50
2023-02-05T09:47:10.284Z,93.50
2023-02-05T09:49:20.888Z,93.60
2023-02-05T09:51:33.685Z,93.50
2023-02-05T09:53:47.304Z,93.70
2023-02-05T09:55:52.908Z,93.60
2023-02-05T09:58:03.541Z,93.50
2023-02-05T10:00:22.444Z,93.60
2023-02-05T10:02:32.648Z,93.70
2023-02-05T10:04:37.513Z,93.50
2023-02-05T10:07:07.981Z,93.30
2023-02-05T10:09:40.959Z,93.50
2023-02-05T10:11:54.308Z,93.40
2023-02-05T10:14:17.350Z,93.30
2023-02-05T10:16:42.542Z,93.20
2023-02-05T10:19:04.136Z,93.10
2023-02-05T10:21:24.994Z,93.40
2023-02-05T10:23:54.826Z,93.30
2023-02-05T10:26:15.489Z,93.20
2023-02-05T10:28:47.246Z,93.20
2023-02-05T10:31:01.930Z,93.40
2023-02-05T10:33:19.736Z,93.30
2023-02-05T10:35:33.176Z,93.30
2023-02-05T10:37:46.398Z,93.50
2023-02-05T10:39:52.269Z,93.30
2023-02-05T10:42:04.863Z,93.50
2023-02-05T10:44:17.523Z,93.40
2023-02-05T10:46:23.006Z,93.60
2023-02-05T10:48:44.790Z,93.70
2023-02-05T10:51:01.820Z,93.70
2023-02-05T10:53:06.529Z,93.60
2023-02-05T10:55:14.749Z,93.40
2023-02-05T10:57:25.862Z,93.40
2023-02-05T10:59:35.808Z,93.20
2023-02-05T11:01:41.700Z,93.10
2023-02-05T11:04:00.766Z,93.10
2023-02-05T11:06:11.447Z,93.00
2023-02-05T11:08:36.290Z,93.00
2023-02-05T11:10:41.385Z,92.90
2023-02-05T11:12:52.962Z,92.70
2023-02-05T11:15:02.177Z,92.80
2023-02-05T11:17:21.801Z,92.80
2023-02-05T11:19:30.681Z,92.40
2023-02-05T11:21:55.009Z,92.50
2023-02-05T11:24:01.080Z,92.30
2023-02-05T11:26:20.144Z,92.50
2023-02-05T11:28:31.920Z,92.30
2023-02-05T11:30:54.310Z,92.10
2023-02-05T11:33:00.389Z,92.20
2023-02-05T11:35:25.556Z,92.10
2023-02-05T11:37:30.511Z,91.70
2023-02-05T11:39:40.733Z,91.80
2023-02-05T11:41:52.230Z,92.00
2023-02-05T11:44:03.164Z,91.60
2023-02-05T11:46:13.311Z,91.60
2023-02-05T11:48:34.477Z,91.10
2023-02-05T11:50:39.394Z,91.20
2023-02-05T11:52:44.405Z,91.20
2023-02-05T11:54:50.818Z,91.10
2023-02-05T11:57:10.391Z,91.20
2023-02-05T11:59:25.496Z,91.00
2023-02-05T12:01:34.425Z,90.60
2023-02-05T12:03:39.904Z,90.80
2023-02-05T12:05:53.592Z,91.10
2023-02-05T12:08:08.877Z,91.20
2023-02-05T12:10:26.533Z,90.80
2023-02-05T12:12:43.218Z,90.80
2023-02-05T12:14:58.908Z,91.20
2023-02-05T12:17:24.850Z,91.40
2023-02-05T12:19:39.747Z,90.70
2023-02-05T12:21:52.952Z,90.60
2023-02-05T12:24:19.697Z,90.50
2023-02-05T12:26:34.043Z,90.50
2023-02-05T12:28:51.080Z,90.90
2023-02-05T12:31:17.733Z,90.90
2023-02-05T12:33:54.103Z,90.60
2023-02-05T12:36:13.227Z,90.60
2023-02-05T12:38:32.563Z,90.90
2023-02-05T12:40:51.453Z,90.60
2023-02-05T12:43:05.217Z,90.60
2023-02-05T12:45:31.259Z,91.10
2023-02-05T12:48:04.502Z,91.10
2023-02-05T12:50:39.804Z,91.40
2023-02-05T12:53:15.672Z,90.80
2023-02-05T12:55:36.751Z,91.00
2023-02-05T12:57:46.979Z,91.00
2023-02-05T12:59:56.618Z,91.00
2023-02-05T13:02:09.066Z,90.80
2023-02-05T13:04:28.572Z,90.80
2023-02-05T13:06:39.540Z,90.80
2023-02-05T13:08:50.593Z,90.80
2023-02-05T13:11:01.394Z,90.70
2023-02-05T13:13:14.080Z,91.10
2023-02-05T13:15:24.966Z,91.10
2023-02-05T13:17:36.746Z,91.30
2023-02-05T13:19:49.091Z,91.50
2023-02-05T13:22:10.409Z,91.50
2023-02-05T13:24:41.965Z,91.80
2023-02-05T13:27:02.568Z,91.70
2023-02-05T13:29:12.044Z,91.90
2023-02-05T13:31:31.003Z,91.80
2023-02-05T13:33:37.575Z,92.00
2023-02-05T13:35:54.710Z,92.00
2023-02-05T13:38:37.451Z,92.00
2023-02-05T13:41:19.557Z,92.00
2023-02-05T13:44:07.727Z,92.00
2023-02-05T13:46:43.946Z,92.10
2023-02-05T13:49:41.700Z,91.90
2023-02-05T13:52:24.375Z,92.40
2023-02-05T13:55:07.362Z,92.40
2023-02-05T13:57:50.078Z,91.90
2023-02-05T13:59:57.037Z,92.20
2023-02-05T14:02:04.334Z,92.40
2023-02-05T14:04:20.207Z,92.80
2023-02-05T14:06:32.984Z,92.20
2023-02-05T14:08:42.425Z,92.00
2023-02-05T14:10:49.547Z,92.30
2023-02-05T14:12:54.949Z,92.70
2023-02-05T14:15:39.886Z,92.70
2023-02-05T14:17:58.709Z,92.60
2023-02-05T14:20:06.127Z,92.70
2023-02-05T14:22:15.810Z,92.40
2023-02-05T14:24:52.245Z,92.50
2023-02-05T14:27:00.778Z,92.30
2023-02-05T14:29:05.770Z,92.40
2023-02-05T14:31:11.695Z,92.30
2023-02-05T14:33:39.625Z,92.10
2023-02-05T14:35:48.164Z,92.20
2023-02-05T14:37:53.941Z,92.40
2023-02-05T14:40:02.333Z,92.80
2023-02-05T14:42:10.324Z,93.10
2023-02-05T14:44:27.334Z,93.20
2023-02-05T14:46:36.515Z,93.40
2023-02-05T14:48:48.993Z,93.60
2023-02-05T14:51:07.019Z,93.70
2023-02-05T14:53:29.677Z,94.00
2023-02-05T14:55:43.978Z,93.90
2023-02-05T14:57:53.284Z,94.20
2023-02-05T15:00:02.928Z,94.30
2023-02-05T15:03:02.520Z,94.30
2023-02-05T15:05:08.915Z,94.50
2023-02-05T15:07:18.529Z,94.50
2023-02-05T15:09:34.443Z,94.20
2023-02-05T15:12:17.197Z,93.90
2023-02-05T15:14:44.765Z,94.00
2023-02-05T15:16:50.125Z,93.90
2023-02-05T15:18:56.728Z,93.90
2023-02-05T15:21:02.448Z,93.90
2023-02-05T15:23:37.908Z,93.80
2023-02-05T15:25:46.659Z,93.90
2023-02-05T15:28:00.097Z,94.00
2023-02-05T15:30:10.910Z,94.40
2023-02-05T15:32:25.609Z,94.60
2023-02-05T15:34:38.022Z,94.80
2023-02-05T15:36:49.914Z,95.10
2023-02-05T15:39:06.149Z,95.20
2023-02-05T15:41:13.968Z,95.30
2023-02-05T15:43:25.052Z,95.40
2023-02-05T15:45:33.823Z,95.30
2023-02-05T15:47:39.057Z,95.30
2023-02-05T15:49:49.137Z,95.30
2023-02-05T15:51:54.367Z,95.30
2023-02-05T15:54:01.475Z,95.30
2023-02-05T15:56:14.377Z,95.30
2023-02-05T15:58:27.048Z,95.30
2023-02-05T16:00:34.973Z,95.30
2023-02-05T16:02:43.656Z,95.40
2023-02-05T16:04:56.905Z,95.30
2023-02-05T16:07:02.333Z,95.30
2023-02-05T16:09:20.176Z,95.20
2023-02-05T16:11:33.739Z,95.20
2023-02-05T16:13:41.324Z,95.40
2023-02-05T16:15:55.413Z,95.30
2023-02-05T16:18:02.316Z,95.20
2023-02-05T16:20:26.752Z,95.40
2023-02-05T16:22:41.077Z,95.30
2023-02-05T16:24:49.252Z,95.40
2023-02-05T16:27:01.011Z,95.30
2023-02-05T16:29:24.764Z,95.30
2023-02-05T16:31:32.420Z,95.40
2023-02-05T16:33:43.405Z,95.40
2023-02-05T16:35:51.310Z,95.50
2023-02-05T16:37:56.459Z,95.40
2023-02-05T16:40:06.064Z,95.40
2023-02-05T16:42:29.984Z,95.50
2023-02-05T16:44:41.677Z,95.80
2023-02-05T16:46:46.676Z,96.00
2023-02-05T16:48:53.637Z,96.00
2023-02-05T16:50:59.904Z,96.10
2023-02-05T16:53:05.718Z,96.00
2023-02-05T16:55:45.645Z,96.00
2023-02-05T16:57:50.657Z,95.80
2023-02-05T16:59:59.873Z,95.80
2023-02-05T17:02:05.961Z,95.80
2023-02-05T17:04:26.945Z,95.90
2023-02-05T17:06:37.504Z,95.70
2023-02-05T17:08:45.443Z,95.60
2023-02-05T17:10:56.400Z,95.70
2023-02-05T17:13:05.440Z,95.70
2023-02-05T17:15:30.774Z,95.60
2023-02-05T17:17:35.827Z,95.60
2023-02-05T17:19:41.014Z,95.70
2023-02-05T17:21:45.903Z,95.80
2023-02-05T17:23:52.177Z,95.70
2023-02-05T17:26:00.039Z,95.60
2023-02-05T17:28:05.748Z,95.50
2023-02-05T17:30:20.666Z,95.80
2023-02-05T17:32:27.018Z,95.90
2023-02-05T17:34:32.345Z,95.80
2023-02-05T17:36:37.242Z,95.90
2023-02-05T17:38:42.147Z,95.80
2023-02-05T17:40:48.140Z,95.80
2023-02-05T17:42:55.591Z,95.70
2023-02-05T17:45:00.743Z,95.70
2023-02-05T17:47:07.552Z,95.80
2023-02-05T17:49:13.669Z,95.90
2023-02-05T17:51:23.359Z,95.80
2023-02-05T17:53:29.068Z,96.00
2023-02-05T17:55:34.024Z,95.70
2023-02-05T17:57:39.606Z,95.80
2023-02-05T17:59:47.505Z,95.70
2023-02-05T18:01:54.664Z,95.50
2023-02-05T18:03:59.820Z,95.60
2023-02-05T18:06:04.963Z,95.70
2023-02-05T18:08:10.167Z,95.70
2023-02-05T18:10:18.867Z,95.70
2023-02-05T18:12:23.752Z,95.80
2023-02-05T18:14:29.057Z,95.90
2023-02-05T18:16:37.846Z,95.80
2023-02-05T18:18:43.067Z,96.00
2023-02-05T18:20:48.368Z,96.00
2023-02-05T18:22:54.179Z,96.00
2023-02-05T18:24:59.244Z,96.00
2023-02-05T18:27:04.438Z,96.00
2023-02-05T18:29:09.353Z,96.10
2023-02-05T18:31:14.876Z,96.10
2023-02-05T18:33:22.729Z,96.10
2023-02-05T18:35:28.231Z,96.00
2023-02-05T18:37:33.223Z,96.00
2023-02-05T18:39:38.113Z,96.00
2023-02-05T18:41:43.762Z,96.00
2023-02-05T18:43:49.412Z,96.10
2023-02-05T18:45:55.381Z,96.10
2023-02-05T18:48:01.326Z,96.10
2023-02-05T18:50:11.463Z,96.10
2023-02-05T18:52:18.430Z,96.00
2023-02-05T18:54:23.670Z,96.10
2023-02-05T18:56:31.128Z,96.10
2023-02-05T18:58:38.076Z,96.10
2023-02-05T19:00:42.960Z,96.10
2023-02-05T19:02:49.023Z,96.10
2023-02-05T19:04:56.342Z,96.10
2023-02-05T19:07:04.000Z,96.10
2023-02-05T19:09:08.881Z,96.20
2023-02-05T19:11:16.947Z,96.20
2023-02-05T19:13:22.350Z,96.20
2023-02-05T19:15:28.326Z,96.10
2023-02-05T19:17:33.949Z,96.10
2023-02-05T19:19:40.677Z,96.20
2023-02-05T19:21:47.724Z,96.20
2023-02-05T19:23:57.508Z,96.20
2023-02-05T19:26:07.098Z,96.20
2023-02-05T19:28:11.999Z,96.10
2023-02-05T19:30:17.458Z,96.10
2023-02-05T19:32:23.582Z,96.00
2023-02-05T19:34:28.975Z,95.90
2023-02-05T19:36:35.831Z,96.10
2023-02-05T19:38:43.328Z,95.90
2023-02-05T19:40:50.763Z,95.90
2023-02-05T19:42:56.925Z,96.00
2023-02-05T19:45:02.468Z,96.00
2023-02-05T19:47:08.547Z,96.10
2023-02-05T19:49:16.781Z,96.20
2023-02-05T19:51:23.844Z,96.20
2023-02-05T19:53:28.909Z,96.20
2023-02-05T19:55:36.189Z,96.30
2023-02-05T19:57:45.344Z,96.30
2023-02-05T19:59:50.979Z,96.10
2023-02-05T20:01:56.564Z,96.10
2023-02-05T20:04:08.688Z,96.20
2023-02-05T20:06:17.374Z,96.10
2023-02-05T20:08:22.583Z,96.00
2023-02-05T20:10:27.454Z,96.00
2023-02-05T20:12:32.339Z,96.10
2023-02-05T20:14:40.161Z,96.10
2023-02-05T20:16:46.369Z,96.10
2023-02-05T20:18:56.507Z,96.20
2023-02-05T20:21:01.501Z,96.20
2023-02-05T20:23:06.469Z,96.20
2023-02-05T20:25:11.914Z,96.20
2023-02-05T20:27:17.100Z,96.10
2023-02-05T20:29:34.554Z,96.00
2023-02-05T20:31:44.299Z,96.00
2023-02-05T20:33:50.262Z,96.00
2023-02-05T20:35:55.965Z,96.00
2023-02-05T20:38:01.193Z,96.00
2023-02-05T20:40:06.733Z,96.00
2023-02-05T20:42:13.557Z,96.10
2023-02-05T20:44:19.149Z,96.10
2023-02-05T20:46:25.904Z,96.20
2023-02-05T20:48:34.598Z,96.30
2023-02-05T20:50:39.699Z,96.30
2023-02-05T20:52:45.231Z,96.30
2023-02-05T20:54:52.750Z,96.30
2023-02-05T20:56:59.434Z,96.20
2023-02-05T20:59:07.153Z,96.20
2023-02-05T21:01:15.573Z,96.20
2023-02-05T21:03:20.584Z,96.00
2023-02-05T21:05:28.367Z,96.00
2023-02-05T21:07:35.809Z,96.00
2023-02-05T21:09:41.056Z,95.90
2023-02-05T21:11:46.888Z,95.90
2023-02-05T21:13:54.173Z,95.90
2023-02-05T21:16:02.676Z,95.70
2023-02-05T21:18:08.669Z,95.60
2023-02-05T21:20:14.485Z,95.70
2023-02-05T21:22:22.227Z,95.70
2023-02-05T21:24:27.504Z,95.70
2023-02-05T21:26:35.973Z,95.60
2023-02-05T21:28:41.260Z,95.70
2023-02-05T21:30:51.545Z,95.70
2023-02-05T21:32:57.065Z,95.70
2023-02-05T21:35:03.352Z,95.70
2023-02-05T21:37:08.590Z,95.70
2023-02-05T21:39:16.755Z,95.70
2023-02-05T21:41:22.483Z,95.80
2023-02-05T21:43:28.794Z,95.70
2023-02-05T21:45:36.800Z,95.60
2023-02-05T21:47:42.538Z,95.50
2023-02-05T21:49:48.336Z,95.50
2023-02-05T21:51:54.061Z,95.60
2023-02-05T21:54:01.606Z,95.70
2023-02-05T21:56:15.610Z,95.60
2023-02-05T21:58:20.632Z,95.70
2023-02-05T22:00:26.200Z,95.70
2023-02-05T22:02:31.448Z,95.70
2023-02-05T22:04:36.888Z,95.80
2023-02-05T22:06:43.008Z,95.80
2023-02-05T22:08:50.859Z,95.70
2023-02-05T22:10:55.787Z,95.70
2023-02-05T22:13:03.727Z,95.70
2023-02-05T22:15:09.982Z,95.70
2023-02-05T22:17:15.396Z,95.50
2023-02-05T22:19:20.939Z,95.40
2023-02-05T22:21:29.063Z,95.40
2023-02-05T22:23:34.533Z,95.40
2023-02-05T22:25:40.472Z,95.30
2023-02-05T22:27:46.170Z,95.20
2023-02-05T22:29:56.095Z,95.00
2023-02-05T22:32:01.040Z,95.40
2023-02-05T22:34:06.895Z,95.40
2023-02-05T22:36:15.421Z,95.60
2023-02-05T22:38:20.277Z,95.60
2023-02-05T22:40:25.363Z,95.60
2023-02-05T22:42:30.378Z,95.90
2023-02-05T22:44:35.525Z,96.00
2023-02-05T22:46:46.013Z,96.00
2023-02-05T22:48:53.656Z,96.20
2023-02-05T22:50:59.368Z,96.10
2023-02-05T22:53:04.208Z,95.80
2023-02-05T22:55:09.972Z,95.90
2023-02-05T22:57:15.526Z,95.70
2023-02-05T22:59:20.392Z,95.80
2023-02-05T23:01:28.309Z,95.90
2023-02-05T23:03:35.746Z,95.90
2023-02-05T23:05:40.667Z,96.00
2023-02-05T23:07:51.722Z,96.00
2023-02-05T23:09:56.580Z,96.00
2023-02-05T23:12:03.244Z,96.00
2023-02-05T23:14:10.224Z,96.00
2023-02-05T23:16:18.101Z,96.00
2023-02-05T23:18:23.105Z,96.00
2023-02-05T23:20:30.730Z,96.00
2023-02-05T23:22:36.104Z,96.00
2023-02-05T23:24:41.083Z,96.00
2023-02-05T23:26:49.201Z,96.00
2023-02-05T23:28:56.092Z,95.90
2023-02-05T23:31:01.057Z,95.90
2023-02-05T23:33:06.937Z,95.90
2023-02-05T23:35:11.844Z,95.90
2023-02-05T23:37:19.736Z,95.90
2023-02-05T23:39:24.871Z,95.90
2023-02-05T23:41:40.387Z,95.90
2023-02-05T23:43:45.317Z,95.90
2023-02-05T23:45:50.749Z,96.00
2023-02-05T23:47:56.401Z,96.10
2023-02-05T23:50:01.329Z,96.10
2023-02-05T23:52:07.866Z,96.10
2023-02-05T23:54:15.669Z,96.10
2023-02-05T23:56:20.988Z,95.90
2023-02-05T23:58:28.325Z,95.90
